Time,TemperatureF,DewpointF,PressureIn,WindDirection,WindDirectionDegrees,WindSpeedMPH,WindSpeedGustMPH,Humidity,HourlyPrecipIn,Conditions,Clouds,dailyrainin,SolarRadiationWatts/m^2,SoftwareType,DateUTC
2013-01-22 00:02:00,19.0,-7.0,-100.00,NNE,16,6.0,10.0,30,0.00,,,0.00,0.000000,,2013-01-22 07:02:00,
2013-01-22 00:33:00,18.0,-10.0,-100.00,North,351,5.0,10.0,28,0.00,,,0.00,0.000000,,2013-01-22 07:33:00,
2013-01-22 00:43:00,18.0,-10.0,-100.00,North,351,5.0,10.0,28,0.00,,,0.00,0.000000,,2013-01-22 07:43:00,
2013-01-22 00:53:00,18.0,-10.0,-100.00,North,351,5.0,10.0,28,0.00,,,0.00,0.000000,,2013-01-22 07:53:00,
2013-01-22 01:02:00,18.0,-10.0,-100.00,North,351,5.0,10.0,28,0.00,,,0.00,0.000000,,2013-01-22 08:02:00,
2013-01-22 01:33:00,22.0,-12.0,-100.00,NNE,19,7.0,12.0,21,0.00,,,0.00,0.000000,,2013-01-22 08:33:00,
2013-01-22 01:43:00,22.0,-12.0,-100.00,NNE,19,7.0,12.0,21,0.00,,,0.00,0.000000,,2013-01-22 08:43:00,
2013-01-22 01:53:00,22.0,-12.0,-100.00,NNE,19,7.0,12.0,21,0.00,,,0.00,0.000000,,2013-01-22 08:53:00,
2013-01-22 02:02:00,22.0,-12.0,-100.00,NNE,19,7.0,12.0,21,0.00,,,0.00,0.000000,,2013-01-22 09:02:00,
2013-01-22 02:33:00,23.0,-13.0,-100.00,NNE,19,7.0,12.0,19,0.00,,,0.00,0.000000,,2013-01-22 09:33:00,
2013-01-22 02:43:00,23.0,-13.0,-100.00,NNE,19,7.0,12.0,19,0.00,,,0.00,0.000000,,2013-01-22 09:43:00,
2013-01-22 02:52:00,23.0,-13.0,-100.00,NNE,19,7.0,12.0,19,0.00,,,0.00,0.000000,,2013-01-22 09:52:00,
2013-01-22 03:02:00,23.0,-13.0,-100.00,NNE,19,7.0,12.0,19,0.00,,,0.00,0.000000,,2013-01-22 10:02:00,
2013-01-22 03:33:00,22.0,-13.0,-100.00,NW,315,3.0,13.0,20,0.00,,,-99.99,0.000000,,2013-01-22 10:33:00,
2013-01-22 03:43:00,22.0,-13.0,-100.00,NW,315,3.0,13.0,20,0.00,,,-99.99,0.000000,,2013-01-22 10:43:00,
2013-01-22 03:52:00,22.0,-13.0,-100.00,NW,315,3.0,13.0,20,0.00,,,-99.99,0.000000,,2013-01-22 10:52:00,
2013-01-22 04:02:00,22.0,-13.0,-100.00,NW,315,3.0,13.0,20,0.00,,,-99.99,0.000000,,2013-01-22 11:02:00,
2013-01-22 04:33:00,20.0,-13.0,-100.00,NW,313,4.0,9.0,22,0.00,,,0.00,0.000000,,2013-01-22 11:33:00,
2013-01-22 04:43:00,20.0,-13.0,-100.00,NW,313,4.0,9.0,22,0.00,,,0.00,0.000000,,2013-01-22 11:43:00,
2013-01-22 04:53:00,20.0,-13.0,-100.00,NW,313,4.0,9.0,22,0.00,,,0.00,0.000000,,2013-01-22 11:53:00,
2013-01-22 05:03:00,20.0,-13.0,-100.00,NW,313,4.0,9.0,22,0.00,,,0.00,0.000000,,2013-01-22 12:03:00,
2013-01-22 05:33:00,18.0,-14.0,-100.00,NNW,336,5.0,8.0,22,0.00,,,0.00,0.000000,,2013-01-22 12:33:00,
2013-01-22 05:43:00,18.0,-14.0,-100.00,NNW,336,5.0,8.0,22,0.00,,,0.00,0.000000,,2013-01-22 12:43:00,
2013-01-22 05:53:00,18.0,-14.0,-100.00,NNW,336,5.0,8.0,22,0.00,,,0.00,0.000000,,2013-01-22 12:53:00,
2013-01-22 06:03:00,18.0,-14.0,-100.00,NNW,336,5.0,8.0,22,0.00,,,0.00,0.000000,,2013-01-22 13:03:00,
2013-01-22 06:34:00,19.0,-16.0,-100.00,NW,323,5.0,11.0,19,0.00,,,0.00,0.000000,,2013-01-22 13:34:00,
2013-01-22 06:43:00,19.0,-16.0,-100.00,NW,323,5.0,11.0,19,0.00,,,0.00,0.000000,,2013-01-22 13:43:00,
2013-01-22 06:53:00,19.0,-16.0,-100.00,NW,323,5.0,11.0,19,0.00,,,0.00,0.000000,,2013-01-22 13:53:00,
2013-01-22 07:03:00,19.0,-16.0,-100.00,NW,323,5.0,11.0,19,0.00,,,0.00,0.000000,,2013-01-22 14:03:00,
2013-01-22 07:34:00,20.0,-18.0,-100.00,WNW,289,3.0,6.0,17,0.00,,,0.00,0.000000,,2013-01-22 14:34:00,
2013-01-22 07:44:00,20.0,-18.0,-100.00,WNW,289,3.0,6.0,17,0.00,,,0.00,0.000000,,2013-01-22 14:44:00,
2013-01-22 07:54:00,20.0,-18.0,-100.00,WNW,289,3.0,6.0,17,0.00,,,0.00,0.000000,,2013-01-22 14:54:00,
2013-01-22 08:03:00,20.0,-18.0,-100.00,WNW,289,3.0,6.0,17,0.00,,,0.00,0.000000,,2013-01-22 15:03:00,
2013-01-22 08:34:00,26.0,-14.0,-100.00,North,355,6.0,10.0,16,0.00,,,0.00,46.000000,,2013-01-22 15:34:00,
2013-01-22 08:44:00,26.0,-14.0,-100.00,North,355,6.0,10.0,16,0.00,,,0.00,46.000000,,2013-01-22 15:44:00,
2013-01-22 08:53:00,26.0,-14.0,-100.00,North,355,6.0,10.0,16,0.00,,,0.00,46.000000,,2013-01-22 15:53:00,
2013-01-22 09:03:00,26.0,-14.0,-100.00,North,355,6.0,10.0,16,0.00,,,0.00,46.000000,,2013-01-22 16:03:00,
2013-01-22 09:34:00,29.0,-10.0,-100.00,North,349,5.0,13.0,17,0.00,,,0.00,233.000000,,2013-01-22 16:34:00,
2013-01-22 09:43:00,29.0,-10.0,-100.00,North,349,5.0,13.0,17,0.00,,,0.00,233.000000,,2013-01-22 16:43:00,
2013-01-22 09:54:00,29.0,-10.0,-100.00,North,349,5.0,13.0,17,0.00,,,0.00,233.000000,,2013-01-22 16:54:00,
2013-01-22 10:03:00,29.0,-10.0,-100.00,North,349,5.0,13.0,17,0.00,,,0.00,233.000000,,2013-01-22 17:03:00,
2013-01-22 10:35:00,39.0,-6.0,-100.00,NNW,345,4.0,9.0,14,0.00,,,0.00,449.000000,,2013-01-22 17:35:00,
2013-01-22 10:44:00,39.0,-6.0,-100.00,NNW,345,4.0,9.0,14,0.00,,,0.00,449.000000,,2013-01-22 17:44:00,
2013-01-22 10:54:00,39.0,-6.0,-100.00,NNW,345,4.0,9.0,14,0.00,,,0.00,449.000000,,2013-01-22 17:54:00,
2013-01-22 11:03:00,39.0,-6.0,-100.00,NNW,345,4.0,9.0,14,0.00,,,0.00,449.000000,,2013-01-22 18:03:00,
2013-01-22 11:34:00,43.0,-14.0,-100.00,North,10,7.0,16.0,8,0.00,,,0.00,599.000000,,2013-01-22 18:34:00,
2013-01-22 11:44:00,43.0,-14.0,-100.00,North,10,7.0,16.0,8,0.00,,,0.00,599.000000,,2013-01-22 18:44:00,
2013-01-22 11:54:00,43.0,-14.0,-100.00,North,10,7.0,16.0,8,0.00,,,0.00,599.000000,,2013-01-22 18:54:00,
2013-01-22 12:03:00,43.0,-14.0,-100.00,North,10,7.0,16.0,8,0.00,,,0.00,599.000000,,2013-01-22 19:03:00,
2013-01-22 12:34:00,47.0,-20.0,-100.00,NNE,17,6.0,16.0,5,0.00,,,0.00,681.000000,,2013-01-22 19:34:00,
2013-01-22 12:43:00,47.0,-20.0,-100.00,NNE,17,6.0,16.0,5,0.00,,,0.00,681.000000,,2013-01-22 19:43:00,
2013-01-22 12:54:00,47.0,-20.0,-100.00,NNE,17,6.0,16.0,5,0.00,,,0.00,681.000000,,2013-01-22 19:54:00,
2013-01-22 13:03:00,47.0,-20.0,-100.00,NNE,17,6.0,16.0,5,0.00,,,0.00,681.000000,,2013-01-22 20:03:00,
2013-01-22 13:34:00,46.0,-18.0,-100.00,North,6,8.0,18.0,6,0.00,,,-99.99,689.000000,,2013-01-22 20:34:00,
2013-01-22 13:43:00,46.0,-18.0,-100.00,North,6,8.0,18.0,6,0.00,,,-99.99,689.000000,,2013-01-22 20:43:00,
2013-01-22 13:53:00,46.0,-18.0,-100.00,North,6,8.0,18.0,6,0.00,,,-99.99,689.000000,,2013-01-22 20:53:00,
2013-01-22 14:03:00,46.0,-18.0,-100.00,North,6,8.0,18.0,6,0.00,,,-99.99,689.000000,,2013-01-22 21:03:00,
2013-01-22 14:34:00,45.0,-18.0,-100.00,North,9,9.0,22.0,6,0.00,,,0.00,637.000000,,2013-01-22 21:34:00,
2013-01-22 14:43:00,45.0,-18.0,-100.00,North,9,9.0,22.0,6,0.00,,,0.00,637.000000,,2013-01-22 21:43:00,
2013-01-22 14:53:00,45.0,-18.0,-100.00,North,9,9.0,22.0,6,0.00,,,0.00,637.000000,,2013-01-22 21:53:00,
2013-01-22 15:03:00,45.0,-18.0,-100.00,North,9,9.0,22.0,6,0.00,,,0.00,637.000000,,2013-01-22 22:03:00,
2013-01-22 15:33:00,44.0,-19.0,-100.00,North,2,9.0,18.0,6,0.00,,,0.00,516.000000,,2013-01-22 22:33:00,
2013-01-22 15:43:00,44.0,-19.0,-100.00,North,2,9.0,18.0,6,0.00,,,0.00,516.000000,,2013-01-22 22:43:00,
2013-01-22 15:53:00,44.0,-19.0,-100.00,North,2,9.0,18.0,6,0.00,,,0.00,516.000000,,2013-01-22 22:53:00,
2013-01-22 16:03:00,44.0,-19.0,-100.00,North,2,9.0,18.0,6,0.00,,,0.00,516.000000,,2013-01-22 23:03:00,
2013-01-22 16:33:00,41.0,-18.0,-100.00,North,6,8.0,23.0,7,0.00,,,0.00,340.000000,,2013-01-22 23:33:00,
2013-01-22 16:43:00,41.0,-18.0,-100.00,North,6,8.0,23.0,7,0.00,,,0.00,340.000000,,2013-01-22 23:43:00,
2013-01-22 16:53:00,41.0,-18.0,-100.00,North,6,8.0,23.0,7,0.00,,,0.00,340.000000,,2013-01-22 23:53:00,
2013-01-22 17:03:00,41.0,-18.0,-100.00,North,6,8.0,23.0,7,0.00,,,0.00,340.000000,,2013-01-23 00:03:00,
2013-01-22 17:33:00,35.0,-18.0,-100.00,NNW,329,3.0,16.0,9,0.00,,,0.00,76.000000,,2013-01-23 00:33:00,
2013-01-22 17:43:00,35.0,-18.0,-100.00,NNW,329,3.0,16.0,9,0.00,,,0.00,76.000000,,2013-01-23 00:43:00,
2013-01-22 17:52:00,35.0,-18.0,-100.00,NNW,329,3.0,16.0,9,0.00,,,0.00,76.000000,,2013-01-23 00:52:00,
2013-01-22 18:03:00,35.0,-18.0,-100.00,NNW,329,3.0,16.0,9,0.00,,,0.00,76.000000,,2013-01-23 01:03:00,
2013-01-22 18:33:00,30.0,-16.0,-100.00,WNW,303,3.0,8.0,12,0.00,,,-99.99,2.000000,,2013-01-23 01:33:00,
2013-01-22 18:43:00,30.0,-16.0,-100.00,WNW,303,3.0,8.0,12,0.00,,,-99.99,2.000000,,2013-01-23 01:43:00,
2013-01-22 18:53:00,30.0,-16.0,-100.00,WNW,303,3.0,8.0,12,0.00,,,-99.99,2.000000,,2013-01-23 01:53:00,
2013-01-22 19:03:00,30.0,-16.0,-100.00,WNW,303,3.0,8.0,12,0.00,,,-99.99,2.000000,,2013-01-23 02:03:00,
2013-01-22 19:33:00,26.0,-13.0,-100.00,NNW,329,3.0,6.0,17,0.00,,,0.00,0.000000,,2013-01-23 02:33:00,
2013-01-22 19:43:00,26.0,-13.0,-100.00,NNW,329,3.0,6.0,17,0.00,,,0.00,0.000000,,2013-01-23 02:43:00,
2013-01-22 19:53:00,26.0,-13.0,-100.00,NNW,329,3.0,6.0,17,0.00,,,0.00,0.000000,,2013-01-23 02:53:00,
2013-01-22 20:03:00,26.0,-13.0,-100.00,NNW,329,3.0,6.0,17,0.00,,,0.00,0.000000,,2013-01-23 03:03:00,
2013-01-22 20:33:00,25.0,-15.0,-100.00,NW,321,2.0,7.0,16,0.00,,,0.00,0.000000,,2013-01-23 03:33:00,
2013-01-22 20:43:00,25.0,-15.0,-100.00,NW,321,2.0,7.0,16,0.00,,,0.00,0.000000,,2013-01-23 03:43:00,
2013-01-22 20:53:00,25.0,-15.0,-100.00,NW,321,2.0,7.0,16,0.00,,,0.00,0.000000,,2013-01-23 03:53:00,
2013-01-22 21:03:00,25.0,-15.0,-100.00,NW,321,2.0,7.0,16,0.00,,,0.00,0.000000,,2013-01-23 04:03:00,
2013-01-22 21:33:00,20.0,-12.0,-100.00,North,350,5.0,8.0,23,0.00,,,0.00,0.000000,,2013-01-23 04:33:00,
2013-01-22 21:43:00,20.0,-12.0,-100.00,North,350,5.0,8.0,23,0.00,,,0.00,0.000000,,2013-01-23 04:43:00,
2013-01-22 21:53:00,20.0,-12.0,-100.00,North,350,5.0,8.0,23,0.00,,,0.00,0.000000,,2013-01-23 04:53:00,
2013-01-22 22:03:00,20.0,-12.0,-100.00,North,350,5.0,8.0,23,0.00,,,0.00,0.000000,,2013-01-23 05:03:00,
2013-01-22 22:33:00,19.0,-12.0,-100.00,NW,319,4.0,10.0,24,0.00,,,0.00,0.000000,,2013-01-23 05:33:00,
2013-01-22 22:43:00,19.0,-12.0,-100.00,NW,319,4.0,10.0,24,0.00,,,0.00,0.000000,,2013-01-23 05:43:00,
2013-01-22 22:53:00,19.0,-12.0,-100.00,NW,319,4.0,10.0,24,0.00,,,0.00,0.000000,,2013-01-23 05:53:00,
2013-01-22 23:02:00,19.0,-12.0,-100.00,NW,319,4.0,10.0,24,0.00,,,0.00,0.000000,,2013-01-23 06:02:00,
2013-01-22 23:33:00,20.0,-18.0,-100.00,SSW,211,2.0,8.0,17,0.00,,,0.00,0.000000,,2013-01-23 06:33:00,
2013-01-22 23:43:00,20.0,-18.0,-100.00,SSW,211,2.0,8.0,17,0.00,,,0.00,0.000000,,2013-01-23 06:43:00,
2013-01-22 23:53:00,20.0,-18.0,-100.00,SSW,211,2.0,8.0,17,0.00,,,0.00,0.000000,,2013-01-23 06:53:00,